Terminal Aerodrome Forecast
Issued by NWS Duluth, MN

Home | Current Version | Previous Version | Text Only | Print | Product List | Glossary On
Versions: 1 2 3 4 5 6 7 8 9 10 11 12 13 14 15
000
FTUS43 KDLH 210520
TAFINL
TAF
KINL 210520Z 2106/2206 18009KT P6SM BKN150 WS020/19045KT
     FM210900 17009KT P6SM BKN150
     FM211500 16011G20KT P6SM BKN050
     FM211900 17012G19KT P6SM VCSH OVC015
     FM212200 17011G19KT 5SM -SHRA BR OVC015
     FM220100 20009KT P6SM VCSH OVC015
     FM220300 22006KT P6SM BKN035=

USA.gov is the U.S. government's official web portal to all federal, state and local government web resources and services.